createdAt,value
2023-02-08T00:02:22.909Z,26.56
2023-02-08T00:04:53.153Z,26.61
2023-02-08T00:07:23.401Z,26.57
2023-02-08T00:09:57.080Z,26.58
2023-02-08T00:12:27.367Z,26.56
2023-02-08T00:14:57.404Z,26.54
2023-02-08T00:17:33.197Z,26.56
2023-02-08T00:20:03.372Z,26.50
2023-02-08T00:22:33.713Z,26.48
2023-02-08T00:25:05.176Z,26.46
2023-02-08T00:27:35.316Z,26.43
2023-02-08T00:30:08.826Z,26.44
2023-02-08T00:32:39.267Z,26.44
2023-02-08T00:35:12.766Z,26.44
2023-02-08T00:37:43.474Z,26.46
2023-02-08T00:40:16.587Z,26.48
2023-02-08T00:42:47.296Z,26.44
2023-02-08T00:45:20.319Z,26.41
2023-02-08T00:47:51.060Z,26.39
2023-02-08T00:50:21.346Z,26.37
2023-02-08T00:52:53.943Z,26.37
2023-02-08T00:55:24.329Z,26.41
2023-02-08T00:57:59.828Z,26.34
2023-02-08T01:00:30.730Z,26.32
2023-02-08T01:03:18.496Z,26.37
2023-02-08T01:05:49.816Z,26.33
2023-02-08T01:08:21.928Z,26.27
2023-02-08T01:13:37.300Z,26.23
2023-02-08T01:16:10.496Z,26.23
2023-02-08T01:18:46.870Z,26.23
2023-02-08T01:21:21.126Z,26.19
2023-02-08T01:23:51.749Z,26.17
2023-02-08T01:26:23.490Z,26.19
2023-02-08T01:28:54.809Z,26.14
2023-02-08T01:31:35.320Z,26.14
2023-02-08T01:34:07.582Z,26.17
2023-02-08T01:36:38.998Z,26.13
2023-02-08T01:39:17.665Z,26.14
2023-02-08T01:41:48.630Z,26.12
2023-02-08T01:44:19.314Z,26.13
2023-02-08T01:46:53.292Z,26.14
2023-02-08T01:49:29.351Z,26.14
2023-02-08T01:52:10.931Z,26.13
2023-02-08T01:54:49.325Z,26.20
2023-02-08T01:57:25.199Z,26.22
2023-02-08T02:00:07.524Z,26.20
2023-02-08T02:02:49.349Z,26.23
2023-02-08T02:05:31.599Z,26.24
2023-02-08T02:09:09.549Z,26.23
2023-02-08T02:10:57.493Z,26.22
2023-02-08T02:13:30.804Z,26.26
2023-02-08T02:16:01.197Z,26.20
2023-02-08T02:18:35.442Z,26.20
2023-02-08T02:21:55.667Z,26.22
2023-02-08T02:24:36.813Z,26.26
2023-02-08T02:27:36.887Z,26.29
2023-02-08T02:30:22.639Z,26.27
2023-02-08T03:05:25.125Z,25.88
2023-02-08T03:08:11.565Z,25.86
2023-02-08T03:11:13.947Z,25.81
2023-02-08T03:14:06.312Z,25.76
2023-02-08T03:16:50.073Z,25.72
2023-02-08T03:19:49.650Z,25.66
2023-02-08T03:22:38.437Z,25.59
2023-02-08T03:25:34.651Z,25.57
2023-02-08T03:28:28.515Z,25.52
2023-02-08T03:31:37.052Z,25.52
2023-02-08T03:34:19.100Z,25.48
2023-02-08T03:36:57.177Z,25.45
2023-02-08T03:39:30.855Z,25.46
2023-02-08T03:42:07.120Z,25.42
2023-02-08T03:45:12.920Z,25.42
2023-02-08T03:47:43.690Z,25.48
2023-02-08T03:50:19.461Z,25.35
2023-02-08T03:52:52.602Z,25.27
2023-02-08T03:55:32.249Z,25.28
2023-02-08T03:58:11.583Z,25.30
2023-02-08T04:03:33.350Z,25.18
2023-02-08T04:06:04.489Z,25.15
2023-02-08T04:08:35.111Z,25.07
2023-02-08T04:11:04.887Z,25.04
2023-02-08T04:13:34.872Z,25.01
2023-02-08T04:16:06.208Z,25.01
2023-02-08T04:18:36.624Z,24.97
2023-02-08T04:21:07.348Z,25.03
2023-02-08T04:23:37.950Z,25.03
2023-02-08T04:26:10.137Z,25.08
2023-02-08T04:28:43.399Z,25.08
2023-02-08T04:31:13.593Z,25.07
2023-02-08T04:33:44.975Z,25.10
2023-02-08T04:36:15.710Z,25.07
2023-02-08T04:38:45.743Z,25.10
2023-02-08T04:41:15.960Z,25.08
2023-02-08T04:43:47.230Z,25.07
2023-02-08T04:46:18.856Z,25.10
2023-02-08T04:48:49.117Z,25.04
2023-02-08T04:51:19.357Z,25.07
2023-02-08T04:53:50.299Z,25.10
2023-02-08T04:56:21.588Z,25.04
2023-02-08T04:58:52.164Z,25.07
2023-02-08T05:01:23.442Z,25.04
2023-02-08T05:03:53.833Z,25.00
2023-02-08T05:06:25.123Z,25.03
2023-02-08T05:08:55.490Z,25.00
2023-02-08T05:11:26.994Z,24.98
2023-02-08T05:14:07.629Z,24.97
2023-02-08T05:16:38.538Z,24.97
2023-02-08T05:19:08.895Z,24.90
2023-02-08T05:21:39.820Z,24.94
2023-02-08T05:24:14.731Z,24.91
2023-02-08T05:26:46.157Z,24.87
2023-02-08T05:29:17.591Z,24.84
2023-02-08T05:31:48.724Z,24.86
2023-02-08T05:34:19.161Z,24.87
2023-02-08T05:36:49.213Z,24.86
2023-02-08T05:39:19.598Z,24.83
2023-02-08T05:41:49.603Z,24.83
2023-02-08T05:44:40.032Z,24.80
2023-02-08T05:47:11.094Z,24.79
2023-02-08T05:49:42.193Z,24.80
2023-02-08T05:52:13.391Z,24.77
2023-02-08T05:54:43.778Z,24.76
2023-02-08T05:57:13.806Z,24.81
2023-02-08T05:59:43.937Z,24.81
2023-02-08T06:02:13.934Z,24.84
2023-02-08T06:04:50.405Z,24.81
2023-02-08T06:07:20.536Z,24.77
2023-02-08T06:09:51.030Z,24.77
2023-02-08T06:12:21.400Z,24.74
2023-02-08T06:14:51.417Z,24.69
2023-02-08T06:17:21.653Z,24.61
2023-02-08T06:19:55.150Z,24.59
2023-02-08T06:22:27.818Z,24.55
2023-02-08T06:24:58.000Z,24.47
2023-02-08T06:27:28.031Z,24.40
2023-02-08T06:29:59.694Z,24.37
2023-02-08T06:32:30.018Z,24.37
2023-02-08T06:35:11.048Z,24.35
2023-02-08T06:37:41.261Z,24.37
2023-02-08T06:40:11.854Z,24.33
2023-02-08T06:42:43.444Z,24.32
2023-02-08T06:45:13.820Z,24.32
2023-02-08T06:47:46.466Z,24.32
2023-02-08T06:50:17.556Z,24.30
2023-02-08T06:52:47.742Z,24.28
2023-02-08T06:55:20.078Z,24.28
2023-02-08T06:57:50.659Z,24.29
2023-02-08T07:00:40.373Z,24.28
2023-02-08T07:03:11.610Z,24.26
2023-02-08T07:06:03.513Z,24.26
2023-02-08T07:08:35.987Z,24.28
2023-02-08T07:11:11.223Z,24.23
2023-02-08T07:13:41.838Z,24.30
2023-02-08T07:16:12.148Z,24.20
2023-02-08T07:18:42.585Z,24.16
2023-02-08T07:21:16.562Z,24.12
2023-02-08T07:23:46.991Z,24.16
2023-02-08T07:26:35.150Z,24.16
2023-02-08T07:29:05.762Z,24.15
2023-02-08T07:31:35.767Z,24.16
2023-02-08T07:34:06.058Z,24.12
2023-02-08T07:36:37.841Z,24.12
2023-02-08T07:39:09.010Z,24.12
2023-02-08T07:41:39.939Z,24.10
2023-02-08T07:44:14.360Z,24.10
2023-02-08T07:49:57.146Z,24.16
2023-02-08T07:52:28.717Z,24.16
2023-02-08T07:54:59.123Z,24.16
2023-02-08T07:57:29.825Z,24.12
2023-02-08T08:00:00.021Z,24.08
2023-02-08T08:02:33.055Z,24.10
2023-02-08T08:05:08.786Z,24.05
2023-02-08T08:07:59.402Z,24.06
2023-02-08T08:10:30.081Z,24.04
2023-02-08T08:13:15.090Z,24.01
2023-02-08T08:15:45.348Z,24.01
2023-02-08T08:18:16.139Z,24.02
2023-02-08T08:20:47.233Z,23.98
2023-02-08T08:23:17.700Z,24.01
2023-02-08T08:25:48.768Z,24.01
2023-02-08T08:28:19.331Z,23.98
2023-02-08T08:30:49.628Z,23.98
2023-02-08T08:33:27.739Z,23.98
2023-02-08T08:35:58.172Z,23.94
2023-02-08T08:38:28.208Z,23.92
2023-02-08T08:40:59.334Z,23.94
2023-02-08T08:43:29.498Z,23.98
2023-02-08T08:46:00.559Z,23.94
2023-02-08T08:48:31.128Z,23.89
2023-02-08T08:51:07.733Z,23.89
2023-02-08T08:53:38.751Z,23.84
2023-02-08T08:56:08.980Z,23.82
2023-02-08T08:58:39.394Z,23.85
2023-02-08T09:01:18.579Z,23.84
2023-02-08T09:03:49.100Z,23.90
2023-02-08T09:06:19.827Z,23.94
2023-02-08T09:08:51.864Z,24.04
2023-02-08T09:11:22.374Z,24.08
2023-02-08T09:13:54.319Z,24.18
2023-02-08T09:16:26.868Z,24.28
2023-02-08T09:19:29.938Z,24.35
2023-02-08T09:22:02.158Z,24.46
2023-02-08T09:24:32.423Z,24.57
2023-02-08T09:27:02.552Z,24.63
2023-02-08T09:29:35.717Z,24.73
2023-02-08T09:32:05.982Z,24.81
2023-02-08T09:34:35.988Z,24.86
2023-02-08T09:37:08.827Z,24.86
2023-02-08T09:39:38.994Z,24.94
2023-02-08T09:42:24.175Z,24.97
2023-02-08T09:45:29.382Z,25.04
2023-02-08T09:48:26.950Z,25.11
2023-02-08T09:51:10.945Z,25.22
2023-02-08T09:53:54.098Z,25.28
2023-02-08T09:56:33.051Z,25.38
2023-02-08T09:59:04.788Z,25.41
2023-02-08T10:01:37.517Z,25.45
2023-02-08T10:04:30.907Z,25.59
2023-02-08T10:07:01.351Z,25.52
2023-02-08T10:09:31.944Z,25.55
2023-02-08T10:12:27.150Z,25.75
2023-02-08T10:15:03.892Z,25.78
2023-02-08T10:18:12.298Z,25.97
2023-02-08T10:21:01.755Z,25.96
2023-02-08T10:23:49.852Z,26.12
2023-02-08T10:26:22.746Z,26.92
2023-02-08T10:29:30.453Z,27.63
2023-02-08T10:32:28.432Z,26.94
2023-02-08T10:35:17.790Z,26.65
2023-02-08T10:37:48.906Z,26.60
2023-02-08T10:40:42.718Z,26.71
2023-02-08T10:43:37.335Z,26.74
2023-02-08T10:46:18.066Z,26.78
2023-02-08T10:51:56.267Z,26.92
2023-02-08T10:54:26.394Z,27.05
2023-02-08T10:57:21.856Z,27.60
2023-02-08T11:00:04.631Z,28.41
2023-02-08T11:02:42.520Z,28.87
2023-02-08T11:05:16.408Z,29.11
2023-02-08T11:08:05.727Z,29.30
2023-02-08T11:10:37.042Z,29.56
2023-02-08T11:13:26.204Z,29.96
2023-02-08T11:16:06.608Z,30.31
2023-02-08T11:19:18.549Z,30.41
2023-02-08T11:21:51.689Z,30.71
2023-02-08T11:24:45.339Z,30.86
2023-02-08T11:27:32.567Z,31.15
2023-02-08T11:30:23.047Z,31.13
2023-02-08T11:33:22.954Z,31.34
2023-02-08T11:36:03.254Z,30.90
2023-02-08T11:38:37.278Z,31.34
2023-02-08T11:41:17.990Z,31.87
2023-02-08T11:44:27.652Z,31.57
2023-02-08T11:49:46.479Z,31.47
2023-02-08T11:52:32.517Z,31.50
2023-02-08T11:55:28.402Z,31.70
2023-02-08T11:58:08.843Z,31.73
2023-02-08T12:00:40.610Z,31.83
2023-02-08T12:03:35.161Z,31.91
2023-02-08T12:06:27.291Z,32.10
2023-02-08T12:09:26.641Z,32.00
2023-02-08T12:12:06.199Z,31.95
2023-02-08T12:15:09.747Z,32.00
2023-02-08T12:18:05.733Z,32.21
2023-02-08T12:20:50.089Z,32.49
2023-02-08T12:23:30.229Z,32.23
2023-02-08T12:26:09.157Z,32.20
2023-02-08T12:28:39.514Z,32.35
2023-02-08T12:31:24.213Z,32.32
2023-02-08T12:34:27.272Z,32.54
2023-02-08T12:37:41.869Z,32.68
2023-02-08T12:40:51.919Z,32.29
2023-02-08T12:43:30.651Z,32.56
2023-02-08T12:46:24.236Z,32.61
2023-02-08T12:49:15.731Z,32.46
2023-02-08T12:52:02.425Z,32.66
2023-02-08T12:54:44.335Z,32.48
2023-02-08T12:57:17.838Z,32.41
2023-02-08T13:00:09.125Z,32.31
2023-02-08T13:04:05.997Z,32.38
2023-02-08T13:06:09.282Z,32.38
2023-02-08T13:09:00.792Z,32.44
2023-02-08T13:15:02.862Z,32.59
2023-02-08T13:17:47.536Z,32.83
2023-02-08T13:20:52.826Z,32.90
2023-02-08T13:23:28.661Z,32.92
2023-02-08T13:26:31.389Z,33.06
2023-02-08T13:29:05.474Z,32.28
2023-02-08T13:31:45.623Z,32.36
2023-02-08T13:34:21.526Z,32.68
2023-02-08T13:36:57.113Z,32.69
2023-02-08T13:39:42.314Z,33.02
2023-02-08T13:42:39.081Z,32.86
2023-02-08T13:45:11.294Z,32.36
2023-02-08T13:47:49.805Z,32.34
2023-02-08T13:50:58.734Z,32.46
2023-02-08T13:53:57.111Z,32.69
2023-02-08T13:56:43.478Z,32.44
2023-02-08T13:59:52.825Z,32.69
2023-02-08T14:02:28.140Z,32.61
2023-02-08T14:05:37.318Z,32.80
2023-02-08T14:08:09.342Z,32.83
2023-02-08T14:10:46.448Z,32.89
2023-02-08T14:13:33.198Z,33.03
2023-02-08T14:16:28.366Z,33.30
2023-02-08T14:19:05.194Z,32.85
2023-02-08T14:22:06.304Z,33.00
2023-02-08T14:25:00.063Z,33.10
2023-02-08T14:27:44.736Z,32.75
2023-02-08T14:30:21.508Z,32.95
2023-02-08T14:33:07.793Z,32.89
2023-02-08T14:35:42.540Z,32.71
2023-02-08T14:38:25.058Z,32.51
2023-02-08T14:40:58.762Z,32.71
2023-02-08T14:43:40.554Z,33.27
2023-02-08T14:46:41.635Z,33.43
2023-02-08T14:49:20.639Z,33.39
2023-02-08T14:52:07.352Z,33.17
2023-02-08T14:55:05.209Z,33.10
2023-02-08T14:57:38.401Z,33.05
2023-02-08T15:00:20.652Z,33.37
2023-02-08T15:02:51.869Z,33.57
2023-02-08T15:05:28.730Z,33.25
2023-02-08T15:08:03.479Z,33.09
2023-02-08T15:10:34.034Z,33.54
2023-02-08T15:13:09.904Z,33.16
2023-02-08T15:15:47.284Z,33.29
2023-02-08T15:18:22.272Z,33.19
2023-02-08T15:21:08.939Z,33.36
2023-02-08T15:23:39.144Z,33.61
2023-02-08T15:26:23.856Z,33.40
2023-02-08T15:29:15.193Z,33.25
2023-02-08T15:31:47.748Z,33.16
2023-02-08T15:34:19.754Z,33.37
2023-02-08T15:36:59.498Z,33.47
2023-02-08T15:39:41.258Z,33.53
2023-02-08T15:42:23.625Z,32.89
2023-02-08T15:45:27.710Z,33.12
2023-02-08T15:48:02.293Z,32.59
2023-02-08T15:50:35.373Z,32.51
2023-02-08T15:53:09.905Z,32.64
2023-02-08T15:55:48.707Z,32.69
2023-02-08T15:58:37.482Z,32.27
2023-02-08T16:01:10.168Z,31.76
2023-02-08T16:03:41.231Z,32.01
2023-02-08T16:06:13.747Z,32.00
2023-02-08T16:09:04.292Z,32.00
2023-02-08T16:11:37.280Z,32.11
2023-02-08T16:14:08.929Z,31.80
2023-02-08T16:16:46.169Z,32.00
2023-02-08T16:19:36.297Z,32.13
2023-02-08T16:22:35.703Z,32.17
2023-02-08T16:25:32.827Z,32.32
2023-02-08T16:28:05.074Z,32.23
2023-02-08T16:30:36.341Z,32.42
2023-02-08T16:33:11.092Z,32.44
2023-02-08T16:35:54.457Z,32.38
2023-02-08T16:38:25.842Z,32.38
2023-02-08T16:41:01.573Z,32.41
2023-02-08T16:43:33.726Z,32.44
2023-02-08T16:46:25.849Z,32.71
2023-02-08T16:48:58.344Z,32.21
2023-02-08T16:51:32.278Z,32.25
2023-02-08T16:54:19.371Z,32.21
2023-02-08T16:56:55.107Z,32.28
2023-02-08T16:59:25.704Z,32.39
2023-02-08T17:01:57.902Z,32.21
2023-02-08T17:04:33.432Z,32.44
2023-02-08T17:07:03.730Z,32.49
2023-02-08T17:09:44.146Z,32.45
2023-02-08T17:12:22.510Z,32.35
2023-02-08T17:14:53.094Z,32.17
2023-02-08T17:17:24.715Z,32.17
2023-02-08T17:19:58.140Z,32.01
2023-02-08T17:22:28.246Z,31.78
2023-02-08T17:24:58.292Z,31.83
2023-02-08T17:27:28.826Z,32.08
2023-02-08T17:29:59.162Z,32.10
2023-02-08T17:32:29.265Z,31.95
2023-02-08T17:35:02.391Z,31.98
2023-02-08T17:37:33.153Z,31.73
2023-02-08T17:40:03.740Z,31.69
2023-02-08T17:42:34.149Z,31.63
2023-02-08T17:45:15.237Z,31.69
2023-02-08T17:47:46.873Z,31.81
2023-02-08T17:50:21.465Z,31.91
2023-02-08T17:52:51.812Z,31.90
2023-02-08T17:55:22.083Z,31.67
2023-02-08T17:57:52.332Z,31.85
2023-02-08T18:00:26.800Z,32.01
2023-02-08T18:03:00.790Z,32.36
2023-02-08T18:05:32.153Z,32.11
2023-02-08T18:08:02.638Z,31.93
2023-02-08T18:10:32.779Z,32.03
2023-02-08T18:13:27.473Z,32.27
2023-02-08T18:16:25.379Z,32.08
2023-02-08T18:19:04.139Z,31.97
2023-02-08T18:21:34.862Z,32.03
2023-02-08T18:24:08.987Z,31.93
2023-02-08T18:26:39.749Z,32.20
2023-02-08T18:29:09.775Z,32.18
2023-02-08T18:34:23.131Z,31.66
2023-02-08T18:36:55.620Z,31.69
2023-02-08T18:39:26.303Z,31.87
2023-02-08T18:41:56.480Z,31.94
2023-02-08T18:44:26.708Z,31.93
2023-02-08T18:46:56.780Z,31.74
2023-02-08T18:49:27.308Z,31.85
2023-02-08T18:51:57.664Z,31.85
2023-02-08T18:54:28.506Z,31.67
2023-02-08T18:56:58.316Z,31.54
2023-02-08T18:59:29.068Z,31.51
2023-02-08T19:01:59.771Z,31.51
2023-02-08T19:04:31.354Z,31.54
2023-02-08T19:07:55.339Z,31.63
2023-02-08T19:10:25.075Z,31.40
2023-02-08T19:12:56.491Z,31.47
2023-02-08T19:15:26.569Z,31.34
2023-02-08T19:17:57.153Z,31.25
2023-02-08T19:20:27.548Z,31.10
2023-02-08T19:22:58.279Z,31.04
2023-02-08T19:25:28.761Z,31.02
2023-02-08T19:27:58.851Z,30.93
2023-02-08T19:30:29.057Z,31.03
2023-02-08T19:33:02.576Z,30.95
2023-02-08T19:35:56.747Z,31.16
2023-02-08T19:38:26.985Z,30.93
2023-02-08T19:40:57.443Z,30.78
2023-02-08T19:43:27.938Z,30.65
2023-02-08T19:45:59.026Z,30.64
2023-02-08T19:48:29.972Z,30.68
2023-02-08T19:51:02.976Z,30.83
2023-02-08T19:56:26.059Z,30.55
2023-02-08T19:58:56.100Z,30.57
2023-02-08T20:01:27.135Z,30.41
2023-02-08T20:03:58.484Z,30.51
2023-02-08T20:06:52.947Z,30.41
2023-02-08T20:09:23.737Z,30.25
2023-02-08T20:11:57.977Z,30.25
2023-02-08T20:14:34.240Z,30.34
2023-02-08T20:17:11.651Z,30.29
2023-02-08T20:19:43.123Z,30.23
2023-02-08T20:22:13.614Z,30.13
2023-02-08T20:24:43.624Z,29.94
2023-02-08T20:27:15.041Z,29.87
2023-02-08T20:30:00.821Z,29.93
2023-02-08T20:32:32.096Z,29.78
2023-02-08T20:35:11.542Z,29.73
2023-02-08T20:37:42.098Z,29.81
2023-02-08T20:40:13.646Z,29.70
2023-02-08T20:42:43.895Z,29.56
2023-02-08T20:45:15.328Z,29.52
2023-02-08T20:47:48.648Z,29.49
2023-02-08T20:50:20.349Z,29.37
2023-02-08T20:52:50.701Z,29.29
2023-02-08T20:55:20.793Z,29.23
2023-02-08T20:57:51.132Z,29.20
2023-02-08T21:00:24.216Z,29.12
2023-02-08T21:02:56.123Z,29.08
2023-02-08T21:05:26.236Z,28.94
2023-02-08T21:07:56.557Z,28.78
2023-02-08T21:10:26.700Z,28.79
2023-02-08T21:12:57.747Z,28.85
2023-02-08T21:15:28.117Z,28.87
2023-02-08T21:17:58.694Z,28.62
2023-02-08T21:20:31.123Z,28.51
2023-02-08T21:23:29.199Z,28.41
2023-02-08T21:26:00.766Z,28.55
2023-02-08T21:28:35.304Z,28.24
2023-02-08T21:31:13.225Z,28.13
2023-02-08T21:33:45.480Z,28.01
2023-02-08T21:36:21.651Z,27.92
2023-02-08T21:38:55.567Z,27.90
2023-02-08T21:41:29.062Z,27.82
2023-02-08T21:44:01.668Z,27.76
2023-02-08T21:46:33.332Z,27.65
2023-02-08T21:49:22.056Z,27.59
2023-02-08T21:52:10.707Z,27.55
2023-02-08T21:54:43.715Z,27.46
2023-02-08T21:57:17.993Z,27.45
2023-02-08T21:59:54.577Z,27.41
2023-02-08T22:02:27.707Z,27.35
2023-02-08T22:05:00.575Z,27.29
2023-02-08T22:07:32.235Z,27.24
2023-02-08T22:10:04.106Z,27.22
2023-02-08T22:12:34.347Z,27.18
2023-02-08T22:15:04.809Z,27.18
2023-02-08T22:17:35.176Z,27.18
2023-02-08T22:20:06.010Z,27.09
2023-02-08T22:22:36.497Z,27.09
2023-02-08T22:25:08.268Z,27.07
2023-02-08T22:31:40.022Z,27.04
2023-02-08T22:34:10.676Z,26.98
2023-02-08T22:36:40.742Z,26.94
2023-02-08T22:39:11.438Z,26.90
2023-02-08T22:41:41.440Z,26.90
2023-02-08T22:44:20.557Z,26.88
2023-02-08T22:46:50.787Z,26.85
2023-02-08T22:49:22.415Z,26.88
2023-02-08T22:51:52.594Z,26.85
2023-02-08T22:54:22.718Z,26.85
2023-02-08T22:56:53.615Z,26.87
2023-02-08T22:59:42.346Z,26.84
2023-02-08T23:02:13.207Z,26.81
2023-02-08T23:04:43.961Z,26.76
2023-02-08T23:07:14.356Z,26.77
2023-02-08T23:09:45.654Z,26.76
2023-02-08T23:12:16.496Z,26.78
2023-02-08T23:14:46.636Z,26.74
2023-02-08T23:17:24.206Z,26.68
2023-02-08T23:20:17.365Z,26.68
2023-02-08T23:22:47.950Z,26.70
2023-02-08T23:25:18.491Z,26.73
2023-02-08T23:27:52.422Z,26.77
2023-02-08T23:30:31.543Z,26.78
2023-02-08T23:33:02.090Z,26.73
2023-02-08T23:35:41.259Z,26.73
2023-02-08T23:38:11.991Z,26.67
2023-02-08T23:41:00.712Z,26.65
2023-02-08T23:43:34.847Z,26.60
2023-02-08T23:46:13.581Z,26.64
2023-02-08T23:48:55.581Z,26.58
2023-02-08T23:51:27.496Z,26.58
2023-02-08T23:53:58.079Z,26.58
2023-02-08T23:56:42.296Z,26.58
2023-02-08T23:59:13.035Z,26.58
